Time;durP1;ratioP1;P1;durP2;ratioP2;P2;SDS_P1;SDS_P2;PMS_P1;PMS_P2;Temp;Humidity;BMP_temperature;BMP_pressure;BME280_temperature;BME280_humidity;BME280_pressure;Samples;Min_cycle;Max_cycle;Signal;HPM_P1;HPM_P2
2023/12/10 00:02:32;;;;;;;4.53;2.00;;;;;;;4.35;100.00;99053.84;6097097;28;20029;-73
2023/12/10 00:05:27;;;;;;;4.65;2.03;;;;;;;4.34;100.00;99057.47;6096172;28;20079;-73
2023/12/10 00:08:22;;;;;;;4.97;2.08;;;;;;;4.46;100.00;99073.81;6097561;28;20434;-73
2023/12/10 00:11:18;;;;;;;4.63;2.00;;;;;;;4.43;100.00;99069.69;6095992;28;20025;-73
2023/12/10 00:14:13;;;;;;;5.40;1.77;;;;;;;4.44;100.00;99070.50;6096452;28;20041;-73
2023/12/10 00:17:08;;;;;;;4.67;1.67;;;;;;;4.57;100.00;99092.81;6097794;28;20287;-73
2023/12/10 00:20:04;;;;;;;4.18;1.85;;;;;;;4.53;100.00;99085.38;6097262;28;20378;-72
2023/12/10 00:23:00;;;;;;;3.53;1.48;;;;;;;4.67;100.00;99098.81;6096181;28;20053;-73
2023/12/10 00:25:55;;;;;;;3.93;1.80;;;;;;;4.75;100.00;99091.03;6097638;28;20102;-73
2023/12/10 00:28:50;;;;;;;4.60;2.00;;;;;;;4.85;100.00;99108.50;6096681;28;20295;-73
2023/12/10 00:31:46;;;;;;;3.40;1.50;;;;;;;4.75;100.00;99079.72;6096668;28;20048;-74
2023/12/10 00:34:41;;;;;;;2.70;1.40;;;;;;;4.97;100.00;99110.78;6096761;28;20063;-72
2023/12/10 00:37:36;;;;;;;5.18;1.60;;;;;;;4.99;100.00;99102.72;6096289;28;20318;-72
2023/12/10 00:40:32;;;;;;;4.17;1.83;;;;;;;5.04;100.00;99109.19;6095912;28;20105;-72
2023/12/10 00:43:27;;;;;;;6.30;2.17;;;;;;;5.07;100.00;99114.16;6096063;28;20283;-73
2023/12/10 00:46:23;;;;;;;2.53;1.40;;;;;;;5.05;100.00;99115.28;6094734;28;20036;-73
2023/12/10 00:49:18;;;;;;;2.85;1.40;;;;;;;5.10;100.00;99120.91;6093234;28;20488;-73
2023/12/10 00:52:14;;;;;;;5.70;1.70;;;;;;;5.10;100.00;99126.16;6092877;28;20446;-72
2023/12/10 00:55:10;;;;;;;9.68;1.90;;;;;;;5.12;100.00;99124.19;6093616;28;20035;-73
2023/12/10 00:58:05;;;;;;;4.57;2.30;;;;;;;5.09;100.00;99124.50;6091909;28;20085;-73
2023/12/10 01:01:00;;;;;;;4.30;1.60;;;;;;;5.09;100.00;99130.56;6094860;28;20086;-72
2023/12/10 01:03:56;;;;;;;5.40;1.73;;;;;;;5.13;100.00;99139.00;6094899;28;20079;-73
2023/12/10 01:06:51;;;;;;;3.07;1.17;;;;;;;5.11;100.00;99143.56;6096663;28;20091;-72
2023/12/10 01:09:46;;;;;;;2.90;1.30;;;;;;;5.09;100.00;99135.81;6104559;28;20079;-73
2023/12/10 01:12:42;;;;;;;7.38;1.80;;;;;;;5.07;100.00;99144.84;6095539;28;20283;-73
2023/12/10 01:15:37;;;;;;;6.43;1.85;;;;;;;5.08;100.00;99146.50;6101057;28;20021;-74
2023/12/10 01:18:33;;;;;;;5.73;1.83;;;;;;;5.25;100.00;99150.91;6095793;28;20035;-74
2023/12/10 01:21:28;;;;;;;4.10;1.70;;;;;;;5.32;100.00;99154.59;6095718;28;20056;-73
2023/12/10 01:24:24;;;;;;;4.87;1.90;;;;;;;5.36;100.00;99163.81;6096184;28;20032;-74
2023/12/10 01:27:19;;;;;;;7.97;2.13;;;;;;;5.42;100.00;99163.22;6096474;28;20025;-74
2023/12/10 01:30:14;;;;;;;6.85;1.92;;;;;;;5.54;100.00;99172.53;6092641;28;20052;-73
2023/12/10 01:33:10;;;;;;;8.20;2.13;;;;;;;5.60;100.00;99169.28;6078864;28;20048;-73
2023/12/10 01:36:06;;;;;;;6.47;2.40;;;;;;;5.77;100.00;99189.47;6096658;28;20120;-73
2023/12/10 01:39:03;;;;;;;11.93;2.85;;;;;;;5.83;100.00;99188.84;6092265;28;20071;-73
2023/12/10 01:41:58;;;;;;;8.30;2.85;;;;;;;5.99;100.00;99203.94;6091065;28;20041;-73
2023/12/10 01:44:54;;;;;;;7.97;2.92;;;;;;;5.98;100.00;99195.22;6096284;28;20033;-73
2023/12/10 01:47:51;;;;;;;9.30;3.27;;;;;;;6.11;100.00;99218.53;6096075;28;20037;-73
2023/12/10 01:50:47;;;;;;;14.68;3.13;;;;;;;6.17;100.00;99220.50;6091612;28;20079;-72
2023/12/10 01:53:42;;;;;;;9.70;3.10;;;;;;;6.23;100.00;99222.53;6093680;28;20029;-72
2023/12/10 01:56:38;;;;;;;14.00;4.10;;;;;;;6.32;100.00;99221.59;6095527;28;20541;-73
2023/12/10 01:59:35;;;;;;;17.13;3.70;;;;;;;6.40;100.00;99218.19;6095501;28;20280;-73
2023/12/10 02:02:30;;;;;;;11.50;3.08;;;;;;;6.47;100.00;99224.47;6092365;28;20032;-73
2023/12/10 02:05:25;;;;;;;16.00;3.17;;;;;;;6.59;100.00;99228.50;6090545;28;20404;-73
2023/12/10 02:08:22;;;;;;;9.35;3.10;;;;;;;6.62;100.00;99233.44;6095778;28;20387;-73
2023/12/10 02:11:17;;;;;;;15.48;4.45;;;;;;;6.64;100.00;99241.19;6095362;28;20426;-72
2023/12/10 02:14:13;;;;;;;12.68;3.30;;;;;;;6.70;100.00;99236.13;6096469;28;20100;-71
2023/12/10 02:17:08;;;;;;;19.40;3.00;;;;;;;6.72;100.00;99242.06;6096242;28;20502;-72
2023/12/10 02:20:05;;;;;;;11.97;3.17;;;;;;;6.80;100.00;99243.88;6096677;28;20626;-72
2023/12/10 02:23:11;;;;;;;13.77;2.90;;;;;;;6.83;100.00;99262.84;6094917;28;20438;-73
2023/12/10 02:26:07;;;;;;;15.20;3.78;;;;;;;6.87;100.00;99268.63;6095365;28;20141;-73
2023/12/10 02:29:03;;;;;;;15.15;2.55;;;;;;;6.89;100.00;99267.50;6095187;28;20537;-73
2023/12/10 02:31:58;;;;;;;19.85;2.42;;;;;;;6.94;100.00;99275.75;6092628;28;20037;-73
2023/12/10 02:34:54;;;;;;;15.10;2.85;;;;;;;6.96;100.00;99273.78;6099300;28;20594;-72
2023/12/10 02:37:50;;;;;;;17.77;3.20;;;;;;;6.97;100.00;99279.88;6099289;28;20786;-73
2023/12/10 02:40:45;;;;;;;14.88;3.67;;;;;;;6.93;100.00;99266.19;6099110;28;20037;-73
2023/12/10 02:43:40;;;;;;;24.20;3.07;;;;;;;6.91;100.00;99265.50;6099037;28;20286;-73
2023/12/10 02:46:36;;;;;;;14.07;2.53;;;;;;;6.92;100.00;99275.09;6100189;28;20279;-73
2023/12/10 02:49:31;;;;;;;12.77;2.63;;;;;;;6.90;100.00;99278.88;6099919;28;20143;-72
2023/12/10 02:52:26;;;;;;;9.10;2.27;;;;;;;6.88;100.00;99286.91;6096872;28;20040;-73
2023/12/10 02:55:22;;;;;;;14.27;2.92;;;;;;;6.85;100.00;99300.41;6099365;28;20104;-72
2023/12/10 02:58:17;;;;;;;12.03;2.10;;;;;;;6.83;100.00;99299.72;6099185;28;20032;-72
2023/12/10 03:01:12;;;;;;;12.33;2.53;;;;;;;6.91;100.00;99318.22;6096174;28;20060;-72
2023/12/10 03:04:08;;;;;;;15.30;2.10;;;;;;;6.94;100.00;99306.53;6097913;28;20494;-73
2023/12/10 03:07:03;;;;;;;12.97;2.43;;;;;;;6.92;100.00;99308.50;6094155;28;20073;-72
2023/12/10 03:09:58;;;;;;;18.58;2.42;;;;;;;6.80;100.00;99309.75;6100161;28;20116;-73
2023/12/10 03:12:55;;;;;;;20.97;3.07;;;;;;;6.74;100.00;99300.66;6099433;28;20036;-73
2023/12/10 03:15:50;;;;;;;14.35;2.83;;;;;;;6.81;100.00;99309.59;6100063;28;20259;-73
2023/12/10 03:18:45;;;;;;;17.90;2.47;;;;;;;6.83;100.00;99326.06;6099378;28;20037;-73
2023/12/10 03:21:41;;;;;;;23.90;2.90;;;;;;;6.83;100.00;99325.25;6099548;28;20040;-73
2023/12/10 03:24:36;;;;;;;30.70;4.30;;;;;;;6.93;100.00;99325.97;6099735;28;20174;-73
2023/12/10 03:27:31;;;;;;;17.67;3.00;;;;;;;6.90;100.00;99316.56;6099145;28;20429;-72
2023/12/10 03:30:27;;;;;;;15.30;2.67;;;;;;;6.96;100.00;99315.94;6094064;28;20028;-73
2023/12/10 03:33:22;;;;;;;15.27;2.67;;;;;;;6.96;100.00;99308.03;6099336;28;20715;-72
2023/12/10 03:36:18;;;;;;;18.50;3.60;;;;;;;7.00;100.00;99317.28;6098907;28;20043;-73
2023/12/10 03:39:13;;;;;;;17.58;3.33;;;;;;;7.03;100.00;99314.34;6094064;28;20044;-73
2023/12/10 03:42:08;;;;;;;15.00;3.10;;;;;;;7.10;100.00;99320.63;6097862;28;20464;-73
2023/12/10 03:45:04;;;;;;;24.40;3.83;;;;;;;7.16;100.00;99324.44;6098518;28;20035;-73
2023/12/10 03:48:00;;;;;;;12.88;2.72;;;;;;;7.25;100.00;99341.09;6090945;28;20039;-72
2023/12/10 03:50:55;;;;;;;21.75;3.60;;;;;;;7.26;100.00;99337.47;6088269;28;20041;-72
2023/12/10 03:53:51;;;;;;;17.37;3.57;;;;;;;7.25;100.00;99325.28;6096904;28;20032;-71
2023/12/10 03:56:46;;;;;;;23.30;3.92;;;;;;;7.26;100.00;99342.75;6093502;28;20025;-72
2023/12/10 03:59:41;;;;;;;15.27;3.17;;;;;;;7.14;100.00;99335.16;6095790;28;20033;-72
2023/12/10 04:02:38;;;;;;;14.65;3.30;;;;;;;7.20;100.00;99339.75;6095522;28;20086;-72
2023/12/10 04:05:34;;;;;;;15.85;3.35;;;;;;;7.32;100.00;99345.59;6095869;28;20029;-73
2023/12/10 04:08:29;;;;;;;17.10;3.25;;;;;;;7.30;100.00;99354.63;6096473;28;20029;-72
2023/12/10 04:11:24;;;;;;;16.67;3.80;;;;;;;7.37;100.00;99355.66;6094376;28;20033;-74
2023/12/10 04:14:19;;;;;;;22.37;4.33;;;;;;;7.32;100.00;99352.66;6097849;28;20313;-72
2023/12/10 04:17:15;;;;;;;18.13;4.10;;;;;;;7.26;100.00;99358.56;6098039;28;20029;-73
2023/12/10 04:20:10;;;;;;;16.90;3.55;;;;;;;7.24;100.00;99365.81;6094958;28;20124;-73
2023/12/10 04:23:06;;;;;;;17.67;3.65;;;;;;;7.16;100.00;99348.97;6098429;28;20494;-73
2023/12/10 04:26:01;;;;;;;18.03;3.77;;;;;;;7.28;100.00;99353.97;6098386;28;20115;-74
2023/12/10 04:28:57;;;;;;;24.70;3.97;;;;;;;7.28;100.00;99346.91;6089177;28;20088;-72
2023/12/10 04:31:52;;;;;;;18.98;4.35;;;;;;;7.31;100.00;99351.03;6095927;28;20040;-72
2023/12/10 04:34:47;;;;;;;25.63;3.60;;;;;;;7.36;100.00;99365.38;6097492;28;20039;-73
2023/12/10 04:37:43;;;;;;;13.10;3.60;;;;;;;7.36;100.00;99360.13;6098286;28;20024;-73
2023/12/10 04:40:38;;;;;;;14.20;3.03;;;;;;;7.40;100.00;99360.59;6096345;28;20114;-73
2023/12/10 04:43:33;;;;;;;18.37;4.00;;;;;;;7.39;100.00;99369.53;6097636;28;20048;-73
2023/12/10 04:46:29;;;;;;;16.40;3.50;;;;;;;7.44;100.00;99367.22;6097366;28;20104;-72
2023/12/10 04:49:24;;;;;;;13.03;3.93;;;;;;;7.40;100.00;99373.78;6097300;28;20112;-72
2023/12/10 04:52:19;;;;;;;11.03;3.00;;;;;;;7.45;100.00;99382.88;6095646;28;20033;-73
2023/12/10 04:55:14;;;;;;;22.33;3.90;;;;;;;7.42;100.00;99377.91;6096051;28;20036;-73
2023/12/10 04:58:10;;;;;;;13.23;3.50;;;;;;;7.37;100.00;99369.66;6097094;28;20021;-73
2023/12/10 05:01:05;;;;;;;21.37;3.13;;;;;;;7.33;100.00;99370.16;6096015;28;20033;-72
2023/12/10 05:04:01;;;;;;;16.33;3.05;;;;;;;7.32;100.00;99385.13;6097272;28;20283;-73
2023/12/10 05:06:56;;;;;;;11.20;2.73;;;;;;;7.19;100.00;99375.03;6097801;28;20446;-71
2023/12/10 05:09:51;;;;;;;18.23;3.17;;;;;;;7.18;100.00;99383.91;6096902;28;20043;-73
2023/12/10 05:12:47;;;;;;;21.93;3.43;;;;;;;7.17;100.00;99387.53;6095942;28;20036;-73
2023/12/10 05:15:42;;;;;;;18.65;4.40;;;;;;;7.15;100.00;99393.94;6097627;28;20032;-73
2023/12/10 05:18:38;;;;;;;12.38;3.05;;;;;;;7.07;100.00;99380.72;6097047;28;20094;-73
2023/12/10 05:21:34;;;;;;;17.90;3.00;;;;;;;7.04;100.00;99384.50;6096372;28;20032;-73
2023/12/10 05:24:29;;;;;;;11.30;2.60;;;;;;;7.06;100.00;99384.34;6096546;28;20350;-73
2023/12/10 05:27:25;;;;;;;18.63;3.63;;;;;;;7.06;100.00;99385.19;6096670;28;20039;-72
2023/12/10 05:30:21;;;;;;;17.25;2.83;;;;;;;7.08;100.00;99388.47;6096641;28;20057;-74
2023/12/10 05:33:16;;;;;;;9.45;2.42;;;;;;;7.09;100.00;99384.84;6093765;28;20399;-73
2023/12/10 05:36:12;;;;;;;14.07;2.60;;;;;;;7.09;100.00;99379.56;6096633;28;20033;-73
2023/12/10 05:39:08;;;;;;;12.67;2.40;;;;;;;7.09;100.00;99382.22;6097101;28;20097;-73
2023/12/10 05:42:03;;;;;;;11.20;3.05;;;;;;;7.11;100.00;99376.78;6096020;28;20029;-74
2023/12/10 05:44:59;;;;;;;15.00;2.38;;;;;;;7.12;100.00;99383.72;6095528;28;20040;-73
2023/12/10 05:47:54;;;;;;;11.80;2.53;;;;;;;7.19;100.00;99384.75;6096170;28;20609;-73
2023/12/10 05:50:50;;;;;;;17.60;3.17;;;;;;;7.27;100.00;99387.41;6095298;28;20375;-74
2023/12/10 05:53:45;;;;;;;13.63;3.60;;;;;;;7.32;100.00;99394.84;6097101;28;20110;-72
2023/12/10 05:56:41;;;;;;;18.80;3.10;;;;;;;7.24;100.00;99379.00;6096367;28;20060;-73
2023/12/10 05:59:37;;;;;;;11.50;2.50;;;;;;;7.29;100.00;99392.53;6096173;28;20053;-73
2023/12/10 06:02:33;;;;;;;9.27;2.38;;;;;;;7.34;100.00;99404.25;6095570;28;20063;-73
2023/12/10 06:05:28;;;;;;;12.27;2.40;;;;;;;7.36;100.00;99390.94;6094084;28;20025;-72
2023/12/10 06:08:23;;;;;;;12.73;2.53;;;;;;;7.37;100.00;99392.56;6099804;28;20746;-73
2023/12/10 06:11:19;;;;;;;12.85;2.85;;;;;;;7.33;100.00;99396.50;6100255;28;20333;-72
2023/12/10 06:14:14;;;;;;;9.37;2.10;;;;;;;7.38;100.00;99378.41;6100786;28;20152;-74
2023/12/10 06:17:09;;;;;;;17.80;3.20;;;;;;;7.47;100.00;99388.00;6103189;28;20086;-73
2023/12/10 06:20:07;;;;;;;9.50;2.13;;;;;;;7.50;100.00;99398.25;6101098;28;20026;-73
2023/12/10 06:23:02;;;;;;;4.35;1.60;;;;;;;7.53;100.00;99416.38;6100462;28;20116;-73
2023/12/10 06:25:57;;;;;;;9.70;2.80;;;;;;;7.56;100.00;99423.97;6099578;28;20056;-73
2023/12/10 06:28:53;;;;;;;6.83;1.90;;;;;;;7.50;100.00;99412.22;6097199;28;20380;-73
2023/12/10 06:31:48;;;;;;;10.10;2.80;;;;;;;7.44;100.00;99404.97;6100468;28;20086;-73
2023/12/10 06:34:43;;;;;;;6.00;1.73;;;;;;;7.42;100.00;99440.41;6100685;28;20060;-74
2023/12/10 06:37:39;;;;;;;9.73;1.52;;;;;;;7.28;100.00;99419.88;6099789;28;20116;-73
2023/12/10 06:40:34;;;;;;;4.57;1.47;;;;;;;7.19;100.00;99433.03;6098859;28;20447;-73
2023/12/10 06:43:30;;;;;;;9.10;1.73;;;;;;;7.08;100.00;99421.91;6100405;28;20029;-73
2023/12/10 06:46:26;;;;;;;2.38;1.10;;;;;;;6.99;100.00;99439.47;6099768;28;20796;-73
2023/12/10 06:49:21;;;;;;;4.70;1.30;;;;;;;6.98;100.00;99456.28;6099015;28;20544;-74
2023/12/10 06:52:17;;;;;;;3.90;1.13;;;;;;;6.93;100.00;99442.72;6099573;28;20037;-73
2023/12/10 06:55:12;;;;;;;6.47;1.90;;;;;;;6.93;100.00;99447.19;6097470;28;20033;-72
2023/12/10 06:58:08;;;;;;;3.03;1.50;;;;;;;6.84;100.00;99459.47;6099106;28;20506;-73
2023/12/10 07:01:04;;;;;;;10.27;1.90;;;;;;;6.74;100.00;99453.44;6099426;28;20337;-72
2023/12/10 07:03:59;;;;;;;5.13;1.45;;;;;;;6.76;100.00;99454.16;6099259;28;20280;-73
2023/12/10 07:06:54;;;;;;;11.50;1.70;;;;;;;6.73;100.00;99464.16;6099769;28;20384;-72
2023/12/10 07:09:50;;;;;;;11.80;2.07;;;;;;;6.68;100.00;99469.06;6099519;28;20472;-73
2023/12/10 07:12:46;;;;;;;5.83;1.70;;;;;;;6.59;100.00;99473.41;6099438;28;20111;-73
2023/12/10 07:15:45;;;;;;;12.18;2.13;;;;;;;6.47;100.00;99459.63;6100362;28;20037;-74
2023/12/10 07:18:40;;;;;;;8.50;1.30;;;;;;;6.46;100.00;99457.19;6098995;28;20040;-74
2023/12/10 07:21:36;;;;;;;6.22;1.25;;;;;;;6.38;100.00;99451.84;6099342;28;20376;-72
2023/12/10 07:24:31;;;;;;;8.40;1.42;;;;;;;6.33;100.00;99462.00;6099665;28;20110;-74
2023/12/10 07:27:26;;;;;;;9.53;1.50;;;;;;;6.37;100.00;99487.03;6098506;28;20124;-73
2023/12/10 07:30:22;;;;;;;7.13;1.80;;;;;;;6.29;100.00;99476.41;6098367;28;20124;-73
2023/12/10 07:33:17;;;;;;;7.97;1.57;;;;;;;6.35;100.00;99489.00;6098364;28;20710;-74
2023/12/10 07:36:13;;;;;;;5.80;1.57;;;;;;;6.29;100.00;99479.88;6098139;28;20029;-71
2023/12/10 07:39:09;;;;;;;10.18;1.75;;;;;;;6.33;100.00;99490.94;6096854;28;20303;-71
2023/12/10 07:42:07;;;;;;;5.97;1.20;;;;;;;6.37;100.00;99508.09;6097785;28;20432;-72
2023/12/10 07:45:03;;;;;;;5.70;1.27;;;;;;;6.34;100.00;99498.69;6097934;28;20032;-72
2023/12/10 07:47:59;;;;;;;2.55;0.90;;;;;;;6.40;100.00;99487.56;6095605;28;20492;-72
2023/12/10 07:50:54;;;;;;;7.63;1.07;;;;;;;6.42;100.00;99500.56;6096849;28;20111;-73
2023/12/10 07:53:50;;;;;;;5.90;1.17;;;;;;;6.37;100.00;99492.28;6100083;28;20075;-73
2023/12/10 07:56:45;;;;;;;3.55;1.13;;;;;;;6.43;100.00;99499.59;6098420;28;20084;-72
2023/12/10 07:59:40;;;;;;;5.00;1.40;;;;;;;6.46;100.00;99504.56;6098476;28;20033;-72
2023/12/10 08:02:36;;;;;;;5.63;1.23;;;;;;;6.42;100.00;99498.75;6098115;28;20025;-73
2023/12/10 08:05:31;;;;;;;5.83;1.07;;;;;;;6.48;100.00;99502.59;6098991;28;20048;-73
2023/12/10 08:08:26;;;;;;;4.10;1.40;;;;;;;6.44;100.00;99498.63;6098801;28;20521;-73
2023/12/10 08:11:22;;;;;;;4.33;0.90;;;;;;;6.53;100.00;99513.50;6098373;28;20291;-74
2023/12/10 08:14:17;;;;;;;3.27;1.10;;;;;;;6.54;100.00;99515.19;6098876;28;20025;-73
2023/12/10 08:17:12;;;;;;;6.97;1.50;;;;;;;6.56;100.00;99502.69;6099088;28;20028;-73
2023/12/10 08:20:10;;;;;;;4.17;1.27;;;;;;;6.59;100.00;99497.94;6098517;28;20060;-72
2023/12/10 08:23:05;;;;;;;4.50;1.08;;;;;;;6.62;100.00;99512.63;6098332;28;20045;-72
2023/12/10 08:26:01;;;;;;;3.93;1.30;;;;;;;6.60;100.00;99509.31;6093021;28;20048;-73
2023/12/10 08:28:56;;;;;;;4.90;1.00;;;;;;;6.69;100.00;99508.41;6094186;28;20275;-73
2023/12/10 08:31:52;;;;;;;3.37;1.17;;;;;;;6.74;100.00;99521.94;6092674;28;20037;-73
2023/12/10 08:34:47;;;;;;;4.77;1.20;;;;;;;6.79;100.00;99519.72;6094821;28;20403;-72
2023/12/10 08:37:43;;;;;;;8.15;1.58;;;;;;;6.70;100.00;99515.34;6096047;28;20538;-72
2023/12/10 08:40:38;;;;;;;4.93;1.80;;;;;;;6.81;100.00;99530.91;6095149;28;20047;-73
2023/12/10 08:43:34;;;;;;;2.87;1.13;;;;;;;6.83;100.00;99530.75;6043952;28;20025;-73
2023/12/10 08:46:29;;;;;;;2.08;0.95;;;;;;;6.77;100.00;99507.63;6094022;28;20052;-72
2023/12/10 08:49:24;;;;;;;5.23;1.80;;;;;;;6.74;100.00;99515.88;6094798;28;20021;-72
2023/12/10 08:52:23;;;;;;;5.38;1.40;;;;;;;6.80;100.00;99534.50;6097047;28;20024;-74
2023/12/10 08:55:18;;;;;;;4.40;1.42;;;;;;;6.63;100.00;99518.72;6097398;28;20404;-72
2023/12/10 08:58:13;;;;;;;4.97;1.20;;;;;;;6.70;100.00;99527.66;6098176;28;20063;-72
2023/12/10 09:01:09;;;;;;;3.65;1.10;;;;;;;6.64;100.00;99531.72;6096557;28;20846;-73
2023/12/10 09:04:05;;;;;;;5.00;1.40;;;;;;;6.58;100.00;99527.88;6097333;28;20024;-73
2023/12/10 09:07:00;;;;;;;7.85;1.75;;;;;;;6.51;100.00;99531.28;6098067;28;20102;-74
2023/12/10 09:09:59;;;;;;;6.23;1.70;;;;;;;6.50;100.00;99548.88;6096879;28;20467;-74
2023/12/10 09:12:54;;;;;;;4.60;1.48;;;;;;;6.40;100.00;99539.38;6096580;28;20392;-73
2023/12/10 09:15:50;;;;;;;6.97;1.70;;;;;;;6.42;100.00;99547.97;6097606;28;20017;-73
2023/12/10 09:18:45;;;;;;;7.70;2.23;;;;;;;6.44;100.00;99556.56;6097863;28;20025;-73
2023/12/10 09:21:40;;;;;;;9.27;1.73;;;;;;;6.44;100.00;99556.56;6096830;28;20029;-74
2023/12/10 09:24:35;;;;;;;11.93;2.30;;;;;;;6.44;100.00;99544.19;6097125;28;20029;-73
2023/12/10 09:27:31;;;;;;;10.77;2.90;;;;;;;6.42;100.00;99547.97;6097287;28;20256;-73
2023/12/10 09:30:26;;;;;;;14.70;3.67;;;;;;;6.44;100.00;99548.66;6088794;28;20052;-74
2023/12/10 09:33:22;;;;;;;10.30;2.33;;;;;;;6.46;100.00;99546.69;6097246;28;20020;-74
2023/12/10 09:36:17;;;;;;;8.50;2.10;;;;;;;6.46;100.00;99544.06;6097424;28;20087;-74
2023/12/10 09:39:14;;;;;;;7.10;1.93;;;;;;;6.52;100.00;99538.22;6097194;28;20059;-74
2023/12/10 09:42:09;;;;;;;7.28;2.03;;;;;;;6.55;100.00;99545.78;6096031;28;20467;-73
2023/12/10 09:45:06;;;;;;;5.27;1.53;;;;;;;6.67;100.00;99552.50;6096772;28;20025;-74
2023/12/10 09:48:02;;;;;;;6.50;1.60;;;;;;;6.65;100.00;99537.84;6097007;28;20028;-74
2023/12/10 09:50:58;;;;;;;7.88;1.83;;;;;;;6.76;100.00;99562.16;6091771;28;20396;-73
2023/12/10 09:53:53;;;;;;;10.07;2.90;;;;;;;6.85;100.00;99550.69;6111693;28;20028;-74
2023/12/10 09:56:48;;;;;;;8.73;2.20;;;;;;;6.94;100.00;99565.59;6096337;28;20021;-73
2023/12/10 09:59:44;;;;;;;4.57;1.70;;;;;;;6.97;100.00;99559.19;6096477;28;20718;-74
2023/12/10 10:02:39;;;;;;;12.37;2.17;;;;;;;6.94;100.00;99555.06;6095144;28;20036;-73
2023/12/10 10:05:36;;;;;;;9.75;2.20;;;;;;;7.03;100.00;99569.16;6096088;28;20041;-73
2023/12/10 10:08:31;;;;;;;11.43;2.13;;;;;;;7.03;100.00;99585.78;6095518;28;20033;-73
2023/12/10 10:11:27;;;;;;;8.95;2.58;;;;;;;6.99;100.00;99563.34;6095407;28;20082;-74
2023/12/10 10:14:23;;;;;;;12.98;2.67;;;;;;;6.95;100.00;99575.19;6095350;28;20032;-74
2023/12/10 10:17:37;;;;;;;15.73;2.22;;;;;;;7.00;100.00;99586.09;6096768;28;20057;-73
2023/12/10 10:20:32;;;;;;;4.18;1.80;;;;;;;6.94;100.00;99570.88;6094306;28;20059;-72
2023/12/10 10:23:31;;;;;;;7.00;2.50;;;;;;;7.00;100.00;99580.81;6095507;28;20468;-74
2023/12/10 10:26:26;;;;;;;10.88;2.10;;;;;;;7.02;100.00;99599.94;6096251;28;20108;-73
2023/12/10 10:29:25;;;;;;;5.63;1.73;;;;;;;6.97;100.00;99581.13;6088326;28;20029;-74
2023/12/10 10:32:22;;;;;;;7.05;1.90;;;;;;;6.99;100.00;99581.78;6090653;28;20120;-73
2023/12/10 10:35:17;;;;;;;10.18;3.22;;;;;;;7.05;100.00;99588.25;6088925;28;20029;-73
2023/12/10 10:38:13;;;;;;;5.82;1.65;;;;;;;7.15;100.00;99589.84;6088128;28;20033;-73
2023/12/10 10:41:09;;;;;;;9.43;2.30;;;;;;;7.17;100.00;99606.31;6095432;28;20454;-72
2023/12/10 10:44:04;;;;;;;10.25;2.60;;;;;;;7.18;100.00;99609.78;6097450;28;20032;-72
2023/12/10 10:47:00;;;;;;;18.30;2.92;;;;;;;7.26;100.00;99590.56;6095955;28;20025;-73
2023/12/10 10:49:57;;;;;;;14.60;2.40;;;;;;;7.24;100.00;99600.44;6086446;28;20113;-73
2023/12/10 10:52:54;;;;;;;9.85;2.60;;;;;;;7.20;100.00;99606.03;6088873;28;21046;-73
2023/12/10 10:55:50;;;;;;;10.05;2.13;;;;;;;7.19;100.00;99598.28;6099698;28;20033;-74
2023/12/10 10:58:45;;;;;;;7.60;2.63;;;;;;;7.18;100.00;99604.53;6100390;28;20541;-74
2023/12/10 11:01:42;;;;;;;10.10;2.37;;;;;;;7.13;100.00;99602.34;6099605;28;20060;-73
2023/12/10 11:04:38;;;;;;;10.40;2.75;;;;;;;7.19;100.00;99627.28;6098167;28;20275;-74
2023/12/10 11:07:40;;;;;;;11.63;2.17;;;;;;;7.13;100.00;99617.34;6099933;28;20021;-73
2023/12/10 11:10:40;;;;;;;7.78;2.22;;;;;;;7.16;100.00;99631.03;6098759;28;20094;-73
2023/12/10 11:13:45;;;;;;;12.88;3.08;;;;;;;7.13;100.00;99631.34;6099637;28;20025;-73
2023/12/10 11:16:41;;;;;;;11.50;2.30;;;;;;;7.13;100.00;99641.88;6099696;28;20037;-74
2023/12/10 11:19:36;;;;;;;7.95;2.45;;;;;;;7.09;100.00;99656.34;6100007;28;20464;-73
2023/12/10 11:22:32;;;;;;;13.23;2.45;;;;;;;7.06;100.00;99659.28;6099254;28;20036;-73
2023/12/10 11:25:28;;;;;;;11.27;2.00;;;;;;;7.01;100.00;99656.25;6098982;28;20396;-74
2023/12/10 11:28:24;;;;;;;5.38;1.75;;;;;;;6.93;100.00;99645.63;6100087;28;20067;-74
2023/12/10 11:31:19;;;;;;;7.70;2.30;;;;;;;6.90;100.00;99648.56;6098999;28;20029;-74
2023/12/10 11:34:14;;;;;;;8.33;2.37;;;;;;;6.97;100.00;99664.63;6098925;28;20100;-74
2023/12/10 11:37:10;;;;;;;8.02;2.15;;;;;;;6.97;100.00;99669.88;6099531;28;20278;-74
2023/12/10 11:40:08;;;;;;;9.80;2.00;;;;;;;6.99;100.00;99655.59;6099545;28;20104;-74
2023/12/10 11:43:04;;;;;;;9.55;2.17;;;;;;;7.04;100.00;99661.22;6098507;28;20033;-74
2023/12/10 11:45:59;;;;;;;12.50;2.35;;;;;;;7.06;100.00;99664.56;6098883;28;20554;-74
2023/12/10 11:48:54;;;;;;;6.60;1.70;;;;;;;7.12;100.00;99669.22;6099612;28;20040;-74
2023/12/10 11:51:50;;;;;;;6.40;1.50;;;;;;;7.16;100.00;99675.03;6099407;28;20032;-74
2023/12/10 11:54:45;;;;;;;8.67;1.57;;;;;;;7.14;100.00;99669.91;6096934;28;20033;-74
2023/12/10 11:57:42;;;;;;;6.63;2.03;;;;;;;7.19;100.00;99688.75;6091595;28;20021;-73
2023/12/10 12:00:38;;;;;;;7.95;1.70;;;;;;;7.19;100.00;99669.47;6098355;28;20068;-74
2023/12/10 12:03:34;;;;;;;13.02;1.90;;;;;;;7.26;100.00;99680.22;6098788;28;20379;-73
2023/12/10 12:06:45;;;;;;;5.97;1.55;;;;;;;7.36;100.00;99705.56;6097491;28;20116;-72
2023/12/10 12:09:42;;;;;;;8.02;1.67;;;;;;;7.43;100.00;99708.41;6099063;28;20116;-74
2023/12/10 12:12:39;;;;;;;7.10;2.13;;;;;;;7.45;100.00;99706.44;6097770;28;20064;-73
2023/12/10 12:15:34;;;;;;;6.63;1.33;;;;;;;7.50;100.00;99712.13;6098020;28;20061;-72
2023/12/10 12:18:30;;;;;;;5.53;1.52;;;;;;;7.48;100.00;99724.59;6098796;28;20468;-73
2023/12/10 12:21:26;;;;;;;5.25;1.70;;;;;;;7.37;100.00;99719.56;6098036;28;20025;-73
2023/12/10 12:24:21;;;;;;;5.78;1.73;;;;;;;7.38;100.00;99724.69;6098366;28;20029;-73
2023/12/10 12:27:17;;;;;;;11.18;1.85;;;;;;;7.36;100.00;99728.47;6097207;28;20036;-74
2023/12/10 12:30:15;;;;;;;6.38;2.03;;;;;;;7.34;100.00;99747.06;6098554;28;20099;-73
2023/12/10 12:33:11;;;;;;;10.48;2.10;;;;;;;7.30;100.00;99735.16;6097519;28;20021;-74
2023/12/10 12:36:06;;;;;;;13.07;2.45;;;;;;;7.32;100.00;99742.91;6097538;28;20028;-74
2023/12/10 12:39:03;;;;;;;10.18;2.20;;;;;;;7.22;100.00;99732.44;6098125;28;20056;-73
2023/12/10 12:41:58;;;;;;;9.43;2.20;;;;;;;7.29;100.00;99738.75;6096798;28;20033;-74
2023/12/10 12:44:54;;;;;;;8.52;1.98;;;;;;;7.25;100.00;99731.31;6097686;28;20040;-74
2023/12/10 12:47:51;;;;;;;8.63;2.17;;;;;;;7.22;100.00;99726.34;6097289;28;20612;-74
2023/12/10 12:50:47;;;;;;;6.95;1.83;;;;;;;7.25;100.00;99741.84;6097124;28;20056;-73
2023/12/10 12:53:42;;;;;;;7.63;2.83;;;;;;;7.25;100.00;99726.88;6097608;28;20029;-73
2023/12/10 12:56:40;;;;;;;8.98;2.03;;;;;;;7.33;100.00;99749.84;6096328;28;20029;-73
2023/12/10 12:59:36;;;;;;;6.95;1.65;;;;;;;7.37;100.00;99751.19;6093212;28;20086;-73
2023/12/10 13:02:35;;;;;;;7.15;2.00;;;;;;;7.29;100.00;99732.66;6052363;28;21697;-72
2023/12/10 13:05:33;;;;;;;10.55;2.30;;;;;;;7.46;100.00;99751.16;6093162;28;20558;-75
2023/12/10 13:08:28;;;;;;;12.18;2.72;;;;;;;7.47;100.00;99746.69;6092746;28;20052;-73
2023/12/10 13:11:24;;;;;;;8.82;1.35;;;;;;;7.61;100.00;99777.84;6084300;28;20415;-73
2023/12/10 13:14:26;;;;;;;3.72;1.30;;;;;;;7.57;100.00;99771.19;6094410;28;20052;-73
2023/12/10 13:17:24;;;;;;;7.50;1.77;;;;;;;7.55;100.00;99787.19;6081993;28;20495;-74
2023/12/10 13:20:20;;;;;;;12.25;2.25;;;;;;;7.48;100.00;99780.84;6093547;28;20071;-74
2023/12/10 13:23:15;;;;;;;5.63;1.15;;;;;;;7.48;100.00;99777.34;6094226;28;20376;-74
2023/12/10 13:26:11;;;;;;;9.37;1.90;;;;;;;7.55;100.00;99791.63;6094091;28;20705;-74
2023/12/10 13:29:06;;;;;;;9.23;1.43;;;;;;;7.56;100.00;99782.72;6093645;28;20395;-74
2023/12/10 13:32:01;;;;;;;6.37;1.20;;;;;;;7.61;100.00;99785.75;6092717;28;20483;-73
2023/12/10 13:34:58;;;;;;;15.32;1.75;;;;;;;7.68;100.00;99782.38;6094328;28;20522;-74
2023/12/10 13:37:53;;;;;;;7.75;1.45;;;;;;;7.74;100.00;99786.22;6059484;28;20033;-73
2023/12/10 13:40:49;;;;;;;7.57;1.93;;;;;;;7.68;100.00;99776.25;6093005;28;20044;-73
2023/12/10 13:43:44;;;;;;;8.10;1.75;;;;;;;7.66;100.00;99783.50;6094334;28;20388;-72